Sect Campobello, Puerto Rico
Current Conditions -  °F | °C
As of 5:56 AM on Friday 24 Oct 2014 (Local Time) from TJSJ Reporting Station
Scattered Clouds Scattered Clouds  
Wind Chill: 81°   Ceiling: Unl
Heat Index: 87°   Visibility: 10mi
Dew Point: 76°   Wind: 0mph
Humidity: 85%   Direction: NA
Pressure: 29.92"   Gusts: NA
Location:  18.1743°N, 66.1581°W
Report Text: TJSJ 240956Z 00000KT 10SM FEW028 SCT075 27/24 A2992 RMK AO2 SLP129 T02720244
Loading
Personal Weather Stations






























Interactive Weather Map
Tropical Storm Tracking
New forecast layout! Learn more

10-Day Weather Forecast

Advertisements
Track Severe Weather on mobile